Flight Track Log - Related Links

Times and Time Zones

All times are in EDT time to prevent confusion due to time zone crossing. See the JBU917 flight status page for this flight to view local times or setup timezone preferences in your user account.

Time Position Orientation Groundspeed Altitude Reporting Facility
EDT Latitude Longitude Course Direction KTS MPH feet Rate Location/Type
Sat 06:13:05 AM 42.3500 -70.9833 160° South 142 163 1,000  Level KA90
Sat 06:14:29 AM 42.3000 -71.0333 216° Southwest 203 234 3,100 2,000 Climbing KA90
Sat 06:15:00 AM 42.2072 -71.2678 160° South  Level Estimated
Sat 06:15:29 AM 42.2333 -71.0500 190° South 242 278 5,800  Level KA90
Sat 06:16:00 AM 42.1552 -71.3547 160° South  Level Estimated
Sat 06:17:00 AM 42.1030 -71.4414 166° South  Level Estimated
Sat 06:17:13 AM 42.1156 -71.1219 204° Southwest 265 305 11,100  Level Boston Center
Sat 06:18:00 AM 42.0509 -71.5279 160° South  Level Estimated
Sat 06:18:13 AM 42.0517 -71.1875 217° Southwest 282 325 13,200  Level Boston Center
Sat 06:19:13 AM 41.9942 -71.2697 227° Southwest 301 346 15,600 2,600 Climbing Boston Center
Sat 06:20:13 AM 41.9306 -71.3631 228° Southwest 326 375 18,400 2,250 Climbing Boston Center
Sat 06:21:13 AM 41.8731 -71.4586 231° Southwest 339 390 20,100 1,700 Climbing Boston Center
Sat 06:22:13 AM 41.8050 -71.5544 226° Southwest 344 396 21,800 950 Climbing Boston Center
Sat 06:23:13 AM 41.7328 -71.6528 225° Southwest 356 410 22,000 100 Climbing Boston Center
Sat 06:24:13 AM 41.6647 -71.7536 228° Southwest 362 417 22,000  Level Boston Center
Sat 06:25:13 AM 41.5964 -71.8489 226° Southwest 362 417 22,000  Level Boston Center
Sat 06:26:13 AM 41.5283 -71.9519 229° Southwest 367 422 22,000  Level Boston Center
Sat 06:27:13 AM 41.4619 -72.0467 227° Southwest 367 422 22,000  Level Boston Center
Sat 06:28:13 AM 41.3933 -72.1467 228° Southwest 367 422 22,000 -50 Level Boston Center
Sat 06:29:13 AM 41.3228 -72.2439 226° Southwest 367 422 21,900 -1,000 Descending Boston Center
Sat 06:30:13 AM 41.2542 -72.3408 227° Southwest 367 422 20,000 -1,750 Descending Boston Center
Sat 06:31:13 AM 41.1958 -72.4208 226° Southwest 361 415 18,400 -1,850 Descending Boston Center
Sat 06:32:13 AM 41.1353 -72.5089 228° Southwest 344 396 16,300 -1,900 Descending Boston Center
Sat 06:33:13 AM 41.0747 -72.5942 227° Southwest 334 384 14,600 -1,650 Descending Boston Center
Sat 06:34:13 AM 41.0183 -72.6767 228° Southwest 317 365 13,000 -1,083 Descending Boston Center
Sat 06:35:37 AM 40.9333 -72.7833 223° Southwest 257 296 12,000 -458 Descending New York TRACON
Sat 06:36:37 AM 40.8833 -72.8500 225° Southwest 255 293 11,900 -556 Descending New York TRACON
Sat 06:37:25 AM 40.8333 -72.8833 207° Southwest 259 298 11,000 -1,053 Descending New York TRACON
Sat 06:38:31 AM 40.7667 -72.9500 217° Southwest 260 299 9,900 -1,000 Descending New York TRACON
Sat 06:39:25 AM 40.7500 -73.0167 252° West 258 297 9,000 -1,000 Descending New York TRACON
Sat 06:40:25 AM 40.7333 -73.1167 258° West 263 303 8,000 -1,000 Descending New York TRACON
Sat 06:41:19 AM 40.7167 -73.2000 255° West 259 298 7,100 -1,000 Descending New York TRACON
Sat 06:42:19 AM 40.6833 -73.2667 237° Southwest 256 295 6,100 -1,000 Descending New York TRACON
Sat 06:43:19 AM 40.6333 -73.3500 232° Southwest 249 287 5,100 -1,000 Descending New York TRACON
Sat 06:44:19 AM 40.6167 -73.4333 255° West 249 287 4,100 -1,000 Descending New York TRACON
Sat 06:45:07 AM 40.6000 -73.4833 246° West 236 272 3,300 -611 Descending New York TRACON
Sat 06:46:07 AM 40.5667 -73.5667 242° Southwest 194 223 3,000 -650 Descending New York TRACON
Sat 06:47:07 AM 40.5833 -73.6167 294° West 180 207 2,000 -700 Descending New York TRACON
Sat 06:48:07 AM 40.6000 -73.6667 294° West 160 184 1,600 -600 Descending New York TRACON
Sat 06:49:07 AM 40.6167 -73.7167 294° West 139 160 800 -800 Descending New York TRACON
Sat 06:51:00 AM 40.6333 -73.7667 270° West  Level FlightAware Approximate
Sat 06:58:00 AM 40.6398 -73.7789 270° West  Level Estimated
Sat 06:59:00 AM 40.6398 -73.7789 270° West  Level Estimated

Login

Don't have an account? Register now (free) for customized features, flight alerts, and more!